createdAt,value
2023-05-27T00:02:37.093Z,18.58
2023-05-27T00:05:10.317Z,68.07
2023-05-27T00:07:40.121Z,42.20
2023-05-27T00:10:10.161Z,27.20
2023-05-27T00:12:39.992Z,19.65
2023-05-27T00:15:10.698Z,18.55
2023-05-27T00:17:42.348Z,16.90
2023-05-27T00:20:12.831Z,16.95
2023-05-27T00:22:43.306Z,16.70
2023-05-27T00:25:15.968Z,17.92
2023-05-27T00:27:48.681Z,17.77
2023-05-27T00:30:19.054Z,17.40
2023-05-27T00:32:50.582Z,16.65
2023-05-27T00:35:20.297Z,18.75
2023-05-27T00:37:52.990Z,18.30
2023-05-27T00:40:24.365Z,17.48
2023-05-27T00:42:54.107Z,18.50
2023-05-27T00:45:24.538Z,19.38
2023-05-27T00:47:55.147Z,19.38
2023-05-27T00:50:27.882Z,18.90
2023-05-27T00:53:01.065Z,18.95
2023-05-27T00:55:30.985Z,18.63
2023-05-27T00:58:00.655Z,17.95
2023-05-27T01:00:30.517Z,15.52
2023-05-27T01:03:04.242Z,16.80
2023-05-27T01:05:34.075Z,15.95
2023-05-27T01:08:15.607Z,14.68
2023-05-27T01:10:50.181Z,15.18
2023-05-27T01:13:23.009Z,19.73
2023-05-27T01:15:55.383Z,21.95
2023-05-27T01:18:28.803Z,18.25
2023-05-27T01:21:03.031Z,21.13
2023-05-27T01:23:38.313Z,20.63
2023-05-27T01:27:01.720Z,21.92
2023-05-27T01:29:31.691Z,21.67
2023-05-27T01:34:35.389Z,20.97
2023-05-27T01:37:08.882Z,23.42
2023-05-27T01:39:38.832Z,22.30
2023-05-27T01:42:13.943Z,22.17
2023-05-27T01:44:55.598Z,32.60
2023-05-27T01:47:25.490Z,25.60
2023-05-27T01:52:24.256Z,29.77
2023-05-27T01:55:09.371Z,31.67
2023-05-27T01:57:39.048Z,30.80
2023-05-27T02:00:12.270Z,34.08
2023-05-27T02:02:42.045Z,34.53
2023-05-27T02:07:43.545Z,32.95
2023-05-27T02:10:13.965Z,34.70
2023-05-27T02:12:43.582Z,34.10
2023-05-27T02:15:13.439Z,32.17
2023-05-27T02:20:12.595Z,32.17
2023-05-27T02:22:42.375Z,31.23
2023-05-27T02:27:41.205Z,31.03
2023-05-27T02:32:39.902Z,27.87
2023-05-27T02:37:38.719Z,29.02
2023-05-27T02:42:37.487Z,29.25
2023-05-27T02:45:07.559Z,27.05
2023-05-27T02:47:37.727Z,30.15
2023-05-27T02:50:07.498Z,28.38
2023-05-27T02:55:06.133Z,28.65
2023-05-27T02:57:35.697Z,29.50
2023-05-27T03:00:06.490Z,27.05
2023-05-27T03:02:36.386Z,26.58
2023-05-27T03:05:06.255Z,28.92
2023-05-27T03:10:05.198Z,20.45
2023-05-27T03:12:34.912Z,22.67
2023-05-27T03:17:33.594Z,22.35
2023-05-27T03:20:06.303Z,24.33
2023-05-27T03:22:36.025Z,25.45
2023-05-27T03:25:07.048Z,24.08
2023-05-27T03:27:37.223Z,17.23
2023-05-27T03:30:07.829Z,15.15
2023-05-27T03:32:37.767Z,13.55
2023-05-27T03:35:07.518Z,14.82
2023-05-27T03:40:06.344Z,18.10
2023-05-27T03:45:09.241Z,14.70
2023-05-27T03:47:39.039Z,17.10
2023-05-27T03:52:38.014Z,17.58
2023-05-27T03:57:36.724Z,12.50
2023-05-27T04:00:15.547Z,15.90
2023-05-27T04:02:45.554Z,15.87
2023-05-27T04:05:15.281Z,15.75
2023-05-27T04:10:14.067Z,15.35
2023-05-27T04:12:44.051Z,16.27
2023-05-27T04:17:44.703Z,16.42
2023-05-27T04:22:47.378Z,19.30
2023-05-27T04:27:46.142Z,22.45
2023-05-27T04:30:15.891Z,20.88
2023-05-27T04:35:14.588Z,21.50
2023-05-27T04:37:47.927Z,21.27
2023-05-27T04:40:17.748Z,19.95
2023-05-27T04:45:17.021Z,16.92
2023-05-27T04:47:46.975Z,19.58
2023-05-27T04:50:17.343Z,16.90
2023-05-27T04:52:49.394Z,14.32
2023-05-27T04:55:19.162Z,13.43
2023-05-27T05:00:25.458Z,14.03
2023-05-27T05:03:03.627Z,13.10
2023-05-27T05:05:34.113Z,12.13
2023-05-27T05:08:03.761Z,10.18
2023-05-27T05:10:33.472Z,9.15
2023-05-27T05:15:33.810Z,9.00
2023-05-27T05:18:03.497Z,10.07
2023-05-27T05:23:03.028Z,9.32
2023-05-27T05:25:40.246Z,10.05
2023-05-27T05:28:10.272Z,9.10
2023-05-27T05:30:40.605Z,7.25
2023-05-27T05:33:10.317Z,9.48
2023-05-27T05:38:09.805Z,7.88
2023-05-27T05:40:39.870Z,9.55
2023-05-27T05:43:09.615Z,7.10
2023-05-27T05:48:08.352Z,7.72
2023-05-27T05:50:38.255Z,6.68
2023-05-27T05:53:08.219Z,7.80
2023-05-27T05:58:07.226Z,7.55
2023-05-27T06:00:36.901Z,7.53
2023-05-27T06:05:36.064Z,7.30
2023-05-27T06:10:35.058Z,9.05
2023-05-27T06:13:05.276Z,9.60
2023-05-27T06:15:35.263Z,9.38
2023-05-27T06:18:05.349Z,8.40
2023-05-27T06:20:35.101Z,7.68
2023-05-27T06:23:05.516Z,7.90
2023-05-27T06:25:35.194Z,8.00
2023-05-27T06:30:35.155Z,8.25
2023-05-27T06:33:04.922Z,8.48
2023-05-27T06:35:35.853Z,8.65
2023-05-27T06:38:05.844Z,8.65
2023-05-27T06:40:35.700Z,7.82
2023-05-27T06:43:05.482Z,9.30
2023-05-27T06:45:35.197Z,8.73
2023-05-27T06:48:05.018Z,8.80
2023-05-27T06:50:34.964Z,8.25
2023-05-27T06:53:06.947Z,8.30
2023-05-27T06:55:36.821Z,9.32
2023-05-27T06:58:06.621Z,9.85
2023-05-27T07:00:36.552Z,7.68
2023-05-27T07:03:06.443Z,7.55
2023-05-27T07:05:36.284Z,7.03
2023-05-27T07:08:06.040Z,7.72
2023-05-27T07:10:36.157Z,7.47
2023-05-27T07:13:05.913Z,8.90
2023-05-27T07:15:35.674Z,8.57
2023-05-27T07:18:05.570Z,7.32
2023-05-27T07:20:36.078Z,8.23
2023-05-27T07:23:06.827Z,8.55
2023-05-27T07:25:36.638Z,7.82
2023-05-27T07:28:06.449Z,6.20
2023-05-27T07:30:37.799Z,6.68
2023-05-27T07:33:07.627Z,6.45
2023-05-27T07:35:37.541Z,7.07
2023-05-27T07:38:08.401Z,8.63
2023-05-27T07:40:38.192Z,8.10
2023-05-27T07:43:07.898Z,10.30
2023-05-27T07:48:07.498Z,10.80
2023-05-27T07:50:37.486Z,8.50
2023-05-27T07:53:07.576Z,9.15
2023-05-27T07:55:37.340Z,9.88
2023-05-27T08:00:37.113Z,6.57
2023-05-27T08:03:07.122Z,7.50
2023-05-27T08:05:36.956Z,6.35
2023-05-27T08:08:06.661Z,8.38
2023-05-27T08:13:05.564Z,6.63
2023-05-27T08:15:35.469Z,7.78
2023-05-27T08:18:05.451Z,7.53
2023-05-27T08:20:35.423Z,8.15
2023-05-27T08:23:05.219Z,10.05
2023-05-27T08:28:06.912Z,9.02
2023-05-27T08:30:36.830Z,8.18
2023-05-27T08:33:06.705Z,7.68
2023-05-27T08:35:36.510Z,9.82
2023-05-27T08:38:06.315Z,9.63
2023-05-27T08:40:36.068Z,8.18
2023-05-27T08:43:06.766Z,7.18
2023-05-27T08:45:38.766Z,9.07
2023-05-27T08:48:10.733Z,8.95
2023-05-27T08:50:40.643Z,8.40
2023-05-27T08:53:10.944Z,8.05
2023-05-27T08:55:41.390Z,8.75
2023-05-27T08:58:11.553Z,8.35
2023-05-27T09:00:41.403Z,7.05
2023-05-27T09:03:11.190Z,7.57
2023-05-27T09:05:40.933Z,7.93
2023-05-27T09:08:10.677Z,8.75
2023-05-27T09:10:41.448Z,7.15
2023-05-27T09:13:11.360Z,5.95
2023-05-27T09:15:43.079Z,6.65
2023-05-27T09:18:14.045Z,7.32
2023-05-27T09:20:46.238Z,7.00
2023-05-27T09:23:16.185Z,7.28
2023-05-27T09:25:46.037Z,7.93
2023-05-27T09:28:15.962Z,7.75
2023-05-27T09:30:50.029Z,7.68
2023-05-27T09:33:26.302Z,9.25
2023-05-27T09:35:56.065Z,8.55
2023-05-27T09:38:25.885Z,7.55
2023-05-27T09:40:55.789Z,7.63
2023-05-27T09:43:25.906Z,9.15
2023-05-27T09:46:03.183Z,10.25
2023-05-27T09:48:36.346Z,10.90
2023-05-27T09:51:07.080Z,10.38
2023-05-27T09:53:37.578Z,10.98
2023-05-27T09:56:08.679Z,10.25
2023-05-27T09:58:38.433Z,10.45
2023-05-27T10:03:41.421Z,10.95
2023-05-27T10:06:12.033Z,12.43
2023-05-27T10:08:43.849Z,10.75
2023-05-27T10:11:16.913Z,10.52
2023-05-27T10:13:48.259Z,10.90
2023-05-27T10:16:25.214Z,11.68
2023-05-27T10:18:58.934Z,10.20
2023-05-27T10:21:35.962Z,11.73
2023-05-27T10:24:06.630Z,12.55
2023-05-27T10:26:43.722Z,13.02
2023-05-27T10:29:13.660Z,14.45
2023-05-27T10:31:54.222Z,12.65
2023-05-27T10:34:24.280Z,11.15
2023-05-27T10:37:03.118Z,11.75
2023-05-27T10:39:33.762Z,11.57
2023-05-27T10:42:04.436Z,11.88
2023-05-27T10:44:38.665Z,11.23
2023-05-27T10:47:13.330Z,11.77
2023-05-27T10:49:43.873Z,9.70
2023-05-27T10:52:15.529Z,11.00
2023-05-27T10:54:49.909Z,13.20
2023-05-27T10:57:20.962Z,13.32
2023-05-27T10:59:59.403Z,13.52
2023-05-27T11:02:42.544Z,12.70
2023-05-27T11:05:13.552Z,13.73
2023-05-27T11:07:43.762Z,12.95
2023-05-27T11:10:13.890Z,13.98
2023-05-27T11:12:51.193Z,15.90
2023-05-27T11:15:22.368Z,17.75
2023-05-27T11:17:53.302Z,18.52
2023-05-27T11:20:23.620Z,17.77
2023-05-27T11:22:54.008Z,17.35
2023-05-27T11:25:23.746Z,14.15
2023-05-27T11:27:53.771Z,13.75
2023-05-27T11:32:52.907Z,11.93
2023-05-27T11:37:55.806Z,11.52
2023-05-27T11:40:26.220Z,12.30
2023-05-27T11:42:55.982Z,11.60
2023-05-27T11:45:26.043Z,14.50
2023-05-27T11:50:26.403Z,14.30
2023-05-27T11:55:26.165Z,17.67
2023-05-27T11:57:56.034Z,17.52
2023-05-27T12:00:26.230Z,18.35
2023-05-27T12:02:56.063Z,17.23
2023-05-27T12:05:34.254Z,14.57
2023-05-27T12:08:06.121Z,13.27
2023-05-27T12:10:35.871Z,15.88
2023-05-27T12:13:08.755Z,17.55
2023-05-27T12:15:41.829Z,18.02
2023-05-27T12:18:11.573Z,17.90
2023-05-27T12:20:41.371Z,15.07
2023-05-27T12:23:11.287Z,17.45
2023-05-27T12:25:41.142Z,15.88
2023-05-27T12:28:11.481Z,16.88
2023-05-27T12:30:41.890Z,16.77
2023-05-27T12:33:12.964Z,16.27
2023-05-27T12:35:42.775Z,16.98
2023-05-27T12:38:13.084Z,15.95
2023-05-27T12:40:42.868Z,15.38
2023-05-27T12:43:12.647Z,16.90
2023-05-27T12:45:42.557Z,15.52
2023-05-27T12:48:12.472Z,15.82
2023-05-27T12:50:42.475Z,16.42
2023-05-27T12:53:12.797Z,16.35
2023-05-27T12:55:42.489Z,16.75
2023-05-27T12:58:12.310Z,15.43
2023-05-27T13:00:42.190Z,15.73
2023-05-27T13:03:12.629Z,14.52
2023-05-27T13:05:42.768Z,15.93
2023-05-27T13:08:12.494Z,16.02
2023-05-27T13:10:43.555Z,15.50
2023-05-27T13:13:13.273Z,15.93
2023-05-27T13:15:44.426Z,16.90
2023-05-27T13:18:14.579Z,15.98
2023-05-27T13:20:44.392Z,17.90
2023-05-27T13:23:14.812Z,18.65
2023-05-27T13:25:44.524Z,18.33
2023-05-27T13:28:14.399Z,20.42
2023-05-27T13:30:44.348Z,19.67
2023-05-27T13:33:14.401Z,19.83
2023-05-27T13:38:17.148Z,19.33
2023-05-27T13:40:46.934Z,19.48
2023-05-27T13:43:16.797Z,23.40
2023-05-27T13:45:48.311Z,23.05
2023-05-27T13:48:18.192Z,23.05
2023-05-27T13:50:52.831Z,21.83
2023-05-27T13:53:22.795Z,23.65
2023-05-27T13:55:53.205Z,23.05
2023-05-27T13:58:23.664Z,24.58
2023-05-27T14:00:53.724Z,15.90
2023-05-27T14:05:53.300Z,14.00
2023-05-27T14:08:23.489Z,12.52
2023-05-27T14:10:53.267Z,11.93
2023-05-27T14:13:23.303Z,11.95
2023-05-27T14:18:23.155Z,15.07
2023-05-27T14:20:53.639Z,12.18
2023-05-27T14:23:23.438Z,14.02
2023-05-27T14:25:53.670Z,12.63
2023-05-27T14:28:23.516Z,11.20
2023-05-27T14:30:53.221Z,12.90
2023-05-27T14:33:24.118Z,13.45
2023-05-27T14:35:54.009Z,13.77
2023-05-27T14:38:26.695Z,13.88
2023-05-27T14:40:56.420Z,15.15
2023-05-27T14:43:26.237Z,12.73
2023-05-27T14:45:55.957Z,13.25
2023-05-27T14:48:25.692Z,11.65
2023-05-27T14:50:55.470Z,10.57
2023-05-27T14:53:25.263Z,8.68
2023-05-27T14:55:55.713Z,11.45
2023-05-27T14:58:25.629Z,10.02
2023-05-27T15:00:55.599Z,10.45
2023-05-27T15:03:28.377Z,11.40
2023-05-27T15:06:00.611Z,12.07
2023-05-27T15:08:30.320Z,11.13
2023-05-27T15:11:03.464Z,10.57
2023-05-27T15:13:33.245Z,11.75
2023-05-27T15:16:02.962Z,12.50
2023-05-27T15:18:33.397Z,11.27
2023-05-27T15:21:03.310Z,12.05
2023-05-27T15:23:33.021Z,12.48
2023-05-27T15:26:02.735Z,11.43
2023-05-27T15:28:32.726Z,10.90
2023-05-27T15:31:02.564Z,11.98
2023-05-27T15:33:32.334Z,12.43
2023-05-27T15:36:02.390Z,13.73
2023-05-27T15:38:32.164Z,11.80
2023-05-27T15:41:01.906Z,12.00
2023-05-27T15:43:31.598Z,13.25
2023-05-27T15:46:04.270Z,12.75
2023-05-27T15:48:35.624Z,11.45
2023-05-27T15:51:05.293Z,13.10
2023-05-27T15:53:35.363Z,12.85
2023-05-27T15:58:34.188Z,11.05
2023-05-27T16:01:04.000Z,12.30
2023-05-27T16:03:33.610Z,11.85
2023-05-27T16:06:05.287Z,11.73
2023-05-27T16:08:35.190Z,11.15
2023-05-27T16:11:04.843Z,11.98
2023-05-27T16:13:37.188Z,11.95
2023-05-27T16:16:10.013Z,13.30
2023-05-27T16:18:39.728Z,12.80
2023-05-27T16:21:09.901Z,12.75
2023-05-27T16:26:09.103Z,14.60
2023-05-27T16:28:38.769Z,13.52
2023-05-27T16:31:08.425Z,14.38
2023-05-27T16:33:38.210Z,14.60
2023-05-27T16:36:09.181Z,14.90
2023-05-27T16:38:38.825Z,13.52
2023-05-27T16:41:08.600Z,12.68
2023-05-27T16:43:38.266Z,14.00
2023-05-27T16:46:07.945Z,14.50
2023-05-27T16:48:37.729Z,12.07
2023-05-27T16:51:08.622Z,13.95
2023-05-27T16:53:38.473Z,12.75
2023-05-27T16:56:08.231Z,15.15
2023-05-27T16:58:37.959Z,15.00
2023-05-27T17:01:07.757Z,13.25
2023-05-27T17:03:38.084Z,13.15
2023-05-27T17:06:07.845Z,14.85
2023-05-27T17:08:37.482Z,13.00
2023-05-27T17:11:07.146Z,13.60
2023-05-27T17:13:36.843Z,11.77
2023-05-27T17:16:06.733Z,13.38
2023-05-27T17:18:37.566Z,13.60
2023-05-27T17:21:07.507Z,13.77
2023-05-27T17:23:39.023Z,11.27
2023-05-27T17:26:08.818Z,13.25
2023-05-27T17:28:38.993Z,12.73
2023-05-27T17:33:37.805Z,14.30
2023-05-27T17:36:07.945Z,16.17
2023-05-27T17:41:09.773Z,16.08
2023-05-27T17:43:39.646Z,16.58
2023-05-27T17:46:09.329Z,14.50
2023-05-27T17:48:39.527Z,15.48
2023-05-27T17:53:38.744Z,25.63
2023-05-27T17:56:08.902Z,18.00
2023-05-27T17:58:38.558Z,15.90
2023-05-27T18:01:08.367Z,18.60
2023-05-27T18:03:38.339Z,17.98
2023-05-27T18:06:08.558Z,22.00
2023-05-27T18:08:38.643Z,21.15
2023-05-27T18:11:08.377Z,26.10
2023-05-27T18:13:39.586Z,29.40
2023-05-27T18:16:10.540Z,25.55
2023-05-27T18:18:40.194Z,19.52
2023-05-27T18:21:11.993Z,22.83
2023-05-27T18:23:41.612Z,18.90
2023-05-27T18:26:11.275Z,18.40
2023-05-27T18:28:40.986Z,17.33
2023-05-27T18:31:10.644Z,14.82
2023-05-27T18:33:40.429Z,15.27
2023-05-27T18:36:10.236Z,14.02
2023-05-27T18:38:41.655Z,14.80
2023-05-27T18:41:11.393Z,15.90
2023-05-27T18:43:41.002Z,14.82
2023-05-27T18:46:10.744Z,13.18
2023-05-27T18:48:40.498Z,12.52
2023-05-27T18:51:10.275Z,13.02
2023-05-27T18:53:44.321Z,14.27
2023-05-27T18:56:14.510Z,14.73
2023-05-27T19:01:14.003Z,15.65
2023-05-27T19:03:43.833Z,19.55
2023-05-27T19:06:13.859Z,20.38
2023-05-27T19:08:44.492Z,20.13
2023-05-27T19:11:14.296Z,21.88
2023-05-27T19:13:44.156Z,24.40
2023-05-27T19:16:14.116Z,25.33
2023-05-27T19:18:43.732Z,26.88
2023-05-27T19:21:14.176Z,28.83
2023-05-27T19:23:44.438Z,27.50
2023-05-27T19:28:47.561Z,28.05
2023-05-27T19:31:17.217Z,28.30
2023-05-27T19:33:50.276Z,23.52
2023-05-27T19:36:22.290Z,23.75
2023-05-27T19:38:52.958Z,21.67
2023-05-27T19:41:22.631Z,21.38
2023-05-27T19:43:52.957Z,22.45
2023-05-27T19:48:51.694Z,22.80
2023-05-27T19:51:22.431Z,22.45
2023-05-27T19:53:58.830Z,27.80
2023-05-27T19:56:28.917Z,19.48
2023-05-27T20:01:28.222Z,21.02
2023-05-27T20:04:00.294Z,20.05
2023-05-27T20:06:30.530Z,19.40
2023-05-27T20:09:00.832Z,17.70
2023-05-27T20:14:00.014Z,19.15
2023-05-27T20:16:29.722Z,22.60
2023-05-27T20:18:59.395Z,19.02
2023-05-27T20:21:29.164Z,18.13
2023-05-27T20:24:01.775Z,20.00
2023-05-27T20:26:32.226Z,19.35
2023-05-27T20:29:01.940Z,18.90
2023-05-27T20:31:31.781Z,19.25
2023-05-27T20:34:01.666Z,18.17
2023-05-27T20:36:31.379Z,18.20
2023-05-27T20:39:01.109Z,18.75
2023-05-27T20:41:30.899Z,18.33
2023-05-27T20:44:02.291Z,51.53
2023-05-27T20:46:32.304Z,22.52
2023-05-27T20:49:02.087Z,16.67
2023-05-27T20:51:31.748Z,15.90
2023-05-27T20:54:01.413Z,13.93
2023-05-27T20:56:31.259Z,14.15
2023-05-27T20:59:01.562Z,14.68
2023-05-27T21:04:06.414Z,14.77
2023-05-27T21:06:36.635Z,15.50
2023-05-27T21:09:06.975Z,14.52
2023-05-27T21:11:36.701Z,15.73
2023-05-27T21:14:06.578Z,16.92
2023-05-27T21:16:36.354Z,16.85
2023-05-27T21:19:06.198Z,17.30
2023-05-27T21:21:35.869Z,16.23
2023-05-27T21:24:05.693Z,26.42
2023-05-27T21:26:35.540Z,25.05
2023-05-27T21:29:05.318Z,17.55
2023-05-27T21:31:36.287Z,18.33
2023-05-27T21:34:07.030Z,17.45
2023-05-27T21:36:40.234Z,16.55
2023-05-27T21:39:09.904Z,28.73
2023-05-27T21:41:39.668Z,20.60
2023-05-27T21:44:10.338Z,17.70
2023-05-27T21:46:40.196Z,17.88
2023-05-27T21:49:12.698Z,15.82
2023-05-27T21:51:42.584Z,16.90
2023-05-27T21:54:12.546Z,16.52
2023-05-27T21:56:42.223Z,19.33
2023-05-27T21:59:13.919Z,19.80
2023-05-27T22:01:43.696Z,17.60
2023-05-27T22:04:13.772Z,18.58
2023-05-27T22:06:45.505Z,17.75
2023-05-27T22:09:15.269Z,20.42
2023-05-27T22:11:45.112Z,18.55
2023-05-27T22:14:14.765Z,20.60
2023-05-27T22:16:47.657Z,20.05
2023-05-27T22:19:18.206Z,19.40
2023-05-27T22:21:47.974Z,17.52
2023-05-27T22:24:17.975Z,20.40
2023-05-27T22:26:47.681Z,17.60
2023-05-27T22:29:17.447Z,17.88
2023-05-27T22:31:47.317Z,18.35
2023-05-27T22:34:17.289Z,19.08
2023-05-27T22:36:47.640Z,17.10
2023-05-27T22:41:46.556Z,21.10
2023-05-27T22:44:16.231Z,18.08
2023-05-27T22:46:49.382Z,21.77
2023-05-27T22:49:19.065Z,19.15
2023-05-27T22:51:48.792Z,20.23
2023-05-27T22:54:19.656Z,21.00
2023-05-27T22:56:49.422Z,20.40
2023-05-27T22:59:19.265Z,20.08
2023-05-27T23:01:49.181Z,20.77
2023-05-27T23:04:19.093Z,21.92
2023-05-27T23:06:48.901Z,22.00
2023-05-27T23:09:19.622Z,22.90
2023-05-27T23:11:49.512Z,24.40
2023-05-27T23:14:19.288Z,24.73
2023-05-27T23:16:51.055Z,24.33
2023-05-27T23:19:20.829Z,25.17
2023-05-27T23:21:50.544Z,28.70
2023-05-27T23:24:20.278Z,28.25
2023-05-27T23:26:50.209Z,26.85
2023-05-27T23:29:19.909Z,27.23
2023-05-27T23:31:49.806Z,25.88
2023-05-27T23:34:20.976Z,26.55
2023-05-27T23:36:50.699Z,28.33
2023-05-27T23:39:20.431Z,27.77
2023-05-27T23:41:50.465Z,26.02
2023-05-27T23:44:20.154Z,25.55
2023-05-27T23:46:49.928Z,26.58
2023-05-27T23:49:20.436Z,24.63
2023-05-27T23:51:50.164Z,25.08
2023-05-27T23:54:19.856Z,25.67
2023-05-27T23:56:49.614Z,27.35
2023-05-27T23:59:22.350Z,26.13
